メインページ
METAR-TAF:

METAR-TAF

空港 :

ダブリン, アイルランド

ダブリン空港

緯度: 53-26N, 経度: 006-15W, 海抜: 68m

現時点の気象観測

当レポートは30分前の05:30(UTC)に作成
南/南西の風 5kt
気温 9°C
湿度 93%
気圧 1020 hPa
視程10km以上
高度3500ftの雲はほとんどない
高度16000ftの千切れ雲あり

METAR: EIDW 200530Z 21005KT 9999 FEW035 BKN160 09/08 Q1020 NOSIG

時間: 07:00 (06:00 UTC)

予報

当レポートは1時間0分前の05:00(UTC)に作成
予報は20日の 06時(UTC)から 21日の 06時(UTC)まで有効
南西の風 7kt
視程10km以上
高度3000ftの雲はほとんどない
20日の 08時(UTC)から 20日の 10時(UTC)まで徐々に
南東の風 7kt
20日の 13時(UTC)から 20日の 16時(UTC)まで徐々に
高度1200ftの千切れ雲あり
小雨
20日の 14時(UTC)から 20日の 21時(UTC)まで一時的に
視程: 4000m
高度800ftの千切れ雲あり
雨, 霧雨
20日の 18時(UTC)から 20日の 21時(UTC)まで徐々に
視程: 2000m
高度100ftの雲は散在している
高度400ftの千切れ雲あり
確率 40%
20日の 21時(UTC)から 21日の 06時(UTC)まで
視程: 0300m
高度100ftの千切れ雲あり

TAF: EIDW 200500Z 2006/2106 22007KT 9999 FEW030 BECMG 2008/2010 14007KT BECMG 2013/2016 -RA BKN012 TEMPO 2014/2021 4000 RADZ BKN008 BECMG 2018/2021 2000 BR SCT001 BKN004 PROB40 2021/2106 0300 FG BKN001

4,000以上の空港の気象観測と天気予報(METAR報とTAF報)

利用可能な観測所は地図上に黄色い丸と赤い丸で示す。

丸の上にカーソルを重ねると観測所名を参照できる。

次にクリックすると気象観測と天気予報を参照できる。

マップの切り替え:黒色「×」印の緑ボタンをクリックして拡大、「-」印の緑ボタンをクリックして縮小、緑色の三角印をクリックして隣りの地図に切り替え


METAR-TAF: